Terminal Aerodrome Forecast
Issued by NWS Knoxville/Tri Cities, TN

Home | Current Version | Previous Version | Text Only | Print | Product List | Glossary On
Versions: 1 2 3 4 5 6 7 8 9 10 11 12 13 14 15 16 17 18 19 20 21 22 23 24 25 26
000
FTUS44 KMRX 252336
TAFCHA
TAF
KCHA 252336Z 2600/2624 16008KT P6SM -SHRA VCTS SCT060CB BKN090
      TEMPO 2602/2606 5SM -SHRA BR BKN060
     FM260600 16005KT 5SM -SHRA BR SCT020 OVC035
     FM261100 15004KT P6SM BKN035
     FM261500 19008KT P6SM VCTS SCT035 BKN045CB
     FM262100 18007KT P6SM SCT050 BKN080=

USA.gov is the U.S. government's official web portal to all federal, state and local government web resources and services.